Time;durP1;ratioP1;P1;durP2;ratioP2;P2;SDS_P1;SDS_P2;PMS_P1;PMS_P2;Temp;Humidity;BMP_temperature;BMP_pressure;BME280_temperature;BME280_humidity;BME280_pressure;Samples;Min_cycle;Max_cycle;Signal;HPM_P1;HPM_P2
2022/05/16 00:00:29;;;;;;;51.50;27.65;;;14.70;99.90;;;;;;5031103;28;20212;-71
2022/05/16 00:02:56;;;;;;;48.05;28.00;;;14.80;99.90;;;;;;5020928;28;20171;-72
2022/05/16 00:05:22;;;;;;;45.55;26.50;;;14.90;99.90;;;;;;5011293;28;20191;-73
2022/05/16 00:07:48;;;;;;;55.38;29.85;;;14.80;99.90;;;;;;5011285;28;20178;-73
2022/05/16 00:10:15;;;;;;;48.70;28.05;;;14.80;99.90;;;;;;5012359;28;20213;-74
2022/05/16 00:12:41;;;;;;;52.75;28.55;;;14.80;99.90;;;;;;5011375;28;20182;-72
2022/05/16 00:15:09;;;;;;;57.10;28.35;;;14.90;99.90;;;;;;5015634;28;20336;-73
2022/05/16 00:17:35;;;;;;;55.90;29.88;;;14.90;99.90;;;;;;5030877;28;20178;-72
2022/05/16 00:20:01;;;;;;;53.92;30.50;;;14.90;99.90;;;;;;5030932;28;20166;-73
2022/05/16 00:22:27;;;;;;;57.15;33.40;;;14.90;99.90;;;;;;5030872;28;20201;-73
2022/05/16 00:24:53;;;;;;;57.20;32.10;;;15.00;99.90;;;;;;5030757;28;20316;-73
2022/05/16 00:27:19;;;;;;;59.88;34.08;;;15.00;99.90;;;;;;5029335;28;20170;-70
2022/05/16 00:29:46;;;;;;;63.88;36.10;;;15.00;99.90;;;;;;5017665;28;20649;-77
2022/05/16 00:32:13;;;;;;;63.47;36.25;;;15.00;99.90;;;;;;5034525;28;20181;-69
2022/05/16 00:34:39;;;;;;;72.22;37.15;;;14.90;99.90;;;;;;5034688;28;20192;-71
2022/05/16 00:37:05;;;;;;;63.83;34.67;;;14.90;99.90;;;;;;5025331;28;20641;-71
2022/05/16 00:39:32;;;;;;;65.03;35.40;;;14.80;99.90;;;;;;5014743;28;20262;-70
2022/05/16 00:41:57;;;;;;;61.47;35.78;;;14.80;99.90;;;;;;5035737;28;20177;-71
2022/05/16 00:44:24;;;;;;;64.85;37.63;;;14.80;99.90;;;;;;5024882;28;20233;-71
2022/05/16 00:46:50;;;;;;;70.95;38.40;;;14.80;99.90;;;;;;5014464;28;20753;-70
2022/05/16 00:49:28;;;;;;;75.18;38.28;;;14.80;99.90;;;;;;5014817;28;20177;-69
2022/05/16 00:52:08;;;;;;;64.45;37.92;;;14.80;99.90;;;;;;5017296;28;20182;-69
2022/05/16 00:54:45;;;;;;;67.82;37.80;;;14.70;99.90;;;;;;5025497;28;20182;-69
2022/05/16 00:57:15;;;;;;;66.43;38.22;;;14.70;99.90;;;;;;5029746;28;20183;-70
2022/05/16 00:59:55;;;;;;;72.90;39.22;;;14.70;99.90;;;;;;5014567;28;20175;-70
2022/05/16 01:05:08;;;;;;;69.85;39.45;;;14.70;99.90;;;;;;5014303;28;20711;-68
2022/05/16 01:07:37;;;;;;;71.63;40.53;;;14.70;99.90;;;;;;5014465;28;20178;-68
2022/05/16 01:10:05;;;;;;;69.47;38.78;;;14.70;99.90;;;;;;5020901;28;20184;-68
2022/05/16 01:12:37;;;;;;;72.97;39.40;;;14.70;99.90;;;;;;5033771;28;20624;-68
2022/05/16 01:15:12;;;;;;;70.35;39.40;;;14.70;99.90;;;;;;5033614;28;20166;-69
2022/05/16 01:17:38;;;;;;;75.75;38.50;;;14.60;99.90;;;;;;5033568;28;20578;-68
2022/05/16 01:20:06;;;;;;;78.93;40.05;;;14.60;99.90;;;;;;5019854;28;20178;-69
2022/05/16 01:22:44;;;;;;;75.32;40.50;;;14.60;99.90;;;;;;5012731;28;20665;-69
2022/05/16 01:25:18;;;;;;;72.55;39.75;;;14.60;99.90;;;;;;5013973;28;20206;-70
2022/05/16 01:27:55;;;;;;;61.40;36.65;;;14.60;99.90;;;;;;5020447;28;20730;-70
2022/05/16 01:30:28;;;;;;;74.32;36.97;;;14.70;99.90;;;;;;5033657;28;20173;-69
2022/05/16 01:32:54;;;;;;;73.25;38.15;;;14.70;99.90;;;;;;5021895;28;20186;-70
2022/05/16 01:35:27;;;;;;;67.72;37.08;;;14.70;99.90;;;;;;5013858;28;20171;-70
2022/05/16 01:40:37;;;;;;;62.03;35.90;;;14.80;99.90;;;;;;5027814;28;20263;-70
2022/05/16 01:43:03;;;;;;;62.80;35.03;;;14.80;99.90;;;;;;5031969;28;20188;-69
2022/05/16 01:45:30;;;;;;;66.28;36.38;;;14.80;99.90;;;;;;5032972;28;20221;-69
2022/05/16 01:47:55;;;;;;;62.10;36.75;;;14.80;99.90;;;;;;5024263;28;20580;-68
2022/05/16 01:50:22;;;;;;;63.95;37.08;;;14.80;99.90;;;;;;5011944;28;20175;-68
2022/05/16 01:52:47;;;;;;;67.13;34.15;;;14.90;99.90;;;;;;5013062;28;20170;-69
2022/05/16 01:55:14;;;;;;;62.42;34.33;;;14.90;99.90;;;;;;5025294;28;20632;-69
2022/05/16 01:57:40;;;;;;;59.75;33.17;;;15.00;99.90;;;;;;5032624;28;20170;-68
2022/05/16 02:00:12;;;;;;;64.90;32.88;;;15.00;99.90;;;;;;5032864;28;20192;-69
2022/05/16 02:02:42;;;;;;;55.97;32.15;;;15.00;99.90;;;;;;5032858;28;20170;-69
2022/05/16 02:05:14;;;;;;;55.22;31.73;;;15.10;99.90;;;;;;5032433;28;20297;-69
2022/05/16 02:07:40;;;;;;;54.38;31.50;;;15.10;99.90;;;;;;5033058;28;20170;-69
2022/05/16 02:10:08;;;;;;;51.40;29.65;;;15.00;99.90;;;;;;5023646;28;20397;-69
2022/05/16 02:12:34;;;;;;;50.00;29.38;;;15.10;99.90;;;;;;5025835;28;20644;-69
2022/05/16 02:15:01;;;;;;;45.35;27.90;;;15.10;99.90;;;;;;5032951;28;20169;-69
2022/05/16 02:17:27;;;;;;;49.60;28.02;;;15.10;99.90;;;;;;5029403;28;20175;-68
2022/05/16 02:19:52;;;;;;;50.35;27.35;;;15.10;99.90;;;;;;5012930;28;20192;-70
2022/05/16 02:25:03;;;;;;;44.60;27.55;;;15.20;99.90;;;;;;5032330;28;20733;-69
2022/05/16 02:27:28;;;;;;;47.65;27.85;;;15.20;99.90;;;;;;5025673;28;20197;-72
2022/05/16 02:29:54;;;;;;;42.05;25.60;;;15.10;99.90;;;;;;5031114;28;20177;-71
2022/05/16 02:32:19;;;;;;;63.55;27.40;;;15.10;99.90;;;;;;5032731;28;20173;-71
2022/05/16 02:34:45;;;;;;;50.35;26.73;;;15.10;99.90;;;;;;5030228;28;20169;-70
2022/05/16 02:37:12;;;;;;;54.35;24.45;;;15.10;99.90;;;;;;5012465;28;20569;-70
2022/05/16 02:39:38;;;;;;;41.38;23.05;;;15.10;99.90;;;;;;5012148;28;20201;-70
2022/05/16 02:42:04;;;;;;;38.00;22.25;;;15.10;99.90;;;;;;5011909;28;20210;-70
2022/05/16 02:44:30;;;;;;;40.20;21.20;;;15.20;99.90;;;;;;5026267;28;20214;-72
2022/05/16 02:46:56;;;;;;;37.47;20.63;;;15.10;99.90;;;;;;5032157;28;20221;-72
2022/05/16 02:49:22;;;;;;;38.05;21.05;;;15.10;99.90;;;;;;5031186;28;20174;-72
2022/05/16 02:51:48;;;;;;;36.30;21.85;;;15.20;99.90;;;;;;5030377;28;20629;-70
2022/05/16 02:54:14;;;;;;;40.80;22.98;;;15.20;99.90;;;;;;5030298;28;20179;-72
2022/05/16 02:56:39;;;;;;;32.28;18.58;;;15.20;99.90;;;;;;5032310;28;20644;-72
2022/05/16 02:59:05;;;;;;;31.00;14.85;;;15.20;99.90;;;;;;5030745;28;20197;-73
2022/05/16 03:01:34;;;;;;;36.08;14.82;;;15.20;99.90;;;;;;5032222;28;20178;-72
2022/05/16 03:04:00;;;;;;;29.25;13.85;;;15.20;99.90;;;;;;5032008;28;20303;-73
2022/05/16 03:06:26;;;;;;;36.25;11.50;;;15.30;99.90;;;;;;5031868;28;20170;-72
2022/05/16 03:08:51;;;;;;;27.77;10.40;;;15.30;99.90;;;;;;5030677;28;20166;-73
2022/05/16 03:11:17;;;;;;;34.10;11.35;;;15.30;99.90;;;;;;5017937;28;20174;-72
2022/05/16 03:13:43;;;;;;;26.92;9.98;;;15.30;99.90;;;;;;5031465;28;20200;-73
2022/05/16 03:16:09;;;;;;;19.00;10.25;;;15.30;99.90;;;;;;5031691;28;20181;-73
2022/05/16 03:18:34;;;;;;;23.17;11.50;;;15.30;99.90;;;;;;5031834;28;20178;-74
2022/05/16 03:21:00;;;;;;;24.55;10.18;;;15.40;99.90;;;;;;5011962;28;20258;-74
2022/05/16 03:23:26;;;;;;;28.15;9.82;;;15.40;99.90;;;;;;5011873;28;20209;-74
2022/05/16 03:25:52;;;;;;;29.15;11.43;;;15.20;99.90;;;;;;5011831;28;20644;-74
2022/05/16 03:28:17;;;;;;;27.17;11.85;;;15.40;99.90;;;;;;5029168;28;20253;-74
2022/05/16 03:30:43;;;;;;;27.33;11.55;;;14.80;99.90;;;;;;5031578;28;20281;-74
2022/05/16 03:33:10;;;;;;;28.55;11.40;;;15.40;99.90;;;;;;5031571;28;20656;-73
2022/05/16 03:35:36;;;;;;;28.17;11.82;;;15.30;99.90;;;;;;5020261;28;20633;-72
2022/05/16 03:38:02;;;;;;;28.35;10.82;;;15.40;99.90;;;;;;5011912;28;20171;-72
2022/05/16 03:40:43;;;;;;;35.15;13.30;;;15.40;99.90;;;;;;5011145;28;20630;-73
2022/05/16 03:43:10;;;;;;;35.50;12.07;;;15.30;99.90;;;;;;5011632;28;20179;-73
2022/05/16 03:45:37;;;;;;;34.22;12.32;;;15.40;99.90;;;;;;5010235;28;20254;-73
2022/05/16 03:48:04;;;;;;;25.58;11.55;;;15.40;99.90;;;;;;5018496;28;20181;-72
2022/05/16 03:50:30;;;;;;;31.27;12.18;;;15.40;99.90;;;;;;5031255;28;20170;-74
2022/05/16 03:52:59;;;;;;;40.60;12.60;;;15.40;99.90;;;;;;5031611;28;20185;-74
2022/05/16 03:55:26;;;;;;;38.20;13.13;;;15.30;99.90;;;;;;5031363;28;20174;-74
2022/05/16 03:57:52;;;;;;;29.60;13.02;;;15.30;99.90;;;;;;5013783;28;20250;-74
2022/05/16 04:00:19;;;;;;;39.50;13.93;;;15.30;99.90;;;;;;5011781;28;20540;-74
2022/05/16 04:02:45;;;;;;;33.35;13.00;;;15.30;99.90;;;;;;5011406;28;20241;-72
2022/05/16 04:05:18;;;;;;;33.55;12.65;;;15.30;99.90;;;;;;5010762;28;20313;-70
2022/05/16 04:07:45;;;;;;;33.70;12.93;;;15.30;99.90;;;;;;5017052;28;20166;-71
2022/05/16 04:10:11;;;;;;;27.38;12.93;;;15.20;99.90;;;;;;5030930;28;20200;-71
2022/05/16 04:12:37;;;;;;;32.80;12.45;;;15.20;99.90;;;;;;5030647;28;20184;-71
2022/05/16 04:15:03;;;;;;;31.88;13.40;;;15.20;99.90;;;;;;5010818;28;20174;-71
2022/05/16 04:17:29;;;;;;;32.72;13.57;;;15.20;99.90;;;;;;5012924;28;20182;-71
2022/05/16 04:19:55;;;;;;;26.63;13.57;;;15.10;99.90;;;;;;5031012;28;20232;-70
2022/05/16 04:22:21;;;;;;;35.58;14.85;;;15.10;99.90;;;;;;5019865;28;20210;-70
2022/05/16 04:24:47;;;;;;;36.35;13.93;;;15.10;99.90;;;;;;5025917;28;20210;-70
2022/05/16 04:27:12;;;;;;;38.30;14.18;;;15.10;99.90;;;;;;5029378;28;20253;-69
2022/05/16 04:29:38;;;;;;;29.63;13.63;;;15.00;99.90;;;;;;5033760;28;20235;-70
2022/05/16 04:32:04;;;;;;;41.63;14.93;;;15.10;99.90;;;;;;5050092;28;20234;-71
2022/05/16 04:34:30;;;;;;;32.28;13.48;;;15.00;99.90;;;;;;5041531;28;20167;-71
2022/05/16 04:36:56;;;;;;;33.28;14.75;;;15.00;99.90;;;;;;5031106;28;20633;-72
2022/05/16 04:39:22;;;;;;;34.50;14.65;;;15.00;99.90;;;;;;5031090;28;20217;-72
2022/05/16 04:44:36;;;;;;;30.65;14.65;;;15.00;99.90;;;;;;5030357;28;20255;-72
2022/05/16 04:47:03;;;;;;;30.08;13.85;;;15.00;99.90;;;;;;5030579;28;20218;-72
2022/05/16 04:49:30;;;;;;;37.30;15.63;;;15.00;99.90;;;;;;5010893;28;20199;-72
2022/05/16 04:51:55;;;;;;;32.70;15.20;;;15.10;99.90;;;;;;5010648;28;20208;-73
2022/05/16 04:54:21;;;;;;;42.42;15.35;;;15.10;99.90;;;;;;5010905;28;20170;-70
2022/05/16 04:56:47;;;;;;;33.17;14.57;;;15.00;99.90;;;;;;4993394;28;20183;-73
2022/05/16 04:59:13;;;;;;;32.00;15.38;;;15.00;99.90;;;;;;5010813;28;20194;-73
2022/05/16 05:01:41;;;;;;;34.42;15.52;;;15.10;99.90;;;;;;5010955;28;20257;-74
2022/05/16 05:04:07;;;;;;;37.50;15.63;;;15.00;99.90;;;;;;4993791;28;20244;-74
2022/05/16 05:06:33;;;;;;;34.83;17.02;;;15.00;99.90;;;;;;5010688;28;20645;-75
2022/05/16 05:08:58;;;;;;;34.20;16.50;;;15.00;99.90;;;;;;5018410;28;20192;-74
2022/05/16 05:16:52;;;;;;;39.50;16.52;;;15.20;99.90;;;;;;5029868;28;20192;-74
2022/05/16 05:19:18;;;;;;;40.50;16.83;;;15.20;99.90;;;;;;5033911;28;20166;-74
2022/05/16 05:21:44;;;;;;;35.95;16.45;;;15.30;99.90;;;;;;5016131;28;20190;-74
2022/05/16 05:24:10;;;;;;;37.70;17.13;;;15.30;99.90;;;;;;5033683;28;20313;-75
2022/05/16 05:26:37;;;;;;;36.60;16.42;;;15.40;99.90;;;;;;5034066;28;20269;-75
2022/05/16 05:29:03;;;;;;;33.72;16.30;;;15.40;99.90;;;;;;5033750;28;20640;-77
2022/05/16 05:31:29;;;;;;;35.80;16.60;;;15.40;99.90;;;;;;5033873;28;20342;-76
2022/05/16 05:33:55;;;;;;;40.35;16.20;;;15.40;99.90;;;;;;5032399;28;20206;-77
2022/05/16 05:36:21;;;;;;;32.15;15.57;;;15.50;99.90;;;;;;5014520;28;20179;-75
2022/05/16 05:38:51;;;;;;;27.33;15.63;;;15.50;99.90;;;;;;4996509;28;20269;-77
2022/05/16 05:41:19;;;;;;;32.72;15.77;;;15.50;99.90;;;;;;5014125;28;20650;-76
2022/05/16 05:43:45;;;;;;;33.63;14.82;;;15.50;99.90;;;;;;5031300;28;20206;-72
2022/05/16 05:46:11;;;;;;;30.70;14.27;;;15.40;99.90;;;;;;5033430;28;20233;-74
2022/05/16 05:48:36;;;;;;;38.95;15.30;;;15.40;99.90;;;;;;5033943;28;20169;-83
2022/05/16 05:51:03;;;;;;;25.50;14.27;;;15.50;99.90;;;;;;5033842;28;20587;-71
2022/05/16 05:53:28;;;;;;;30.20;15.07;;;15.40;99.90;;;;;;5032660;28;20188;-72
2022/05/16 05:55:54;;;;;;;33.17;13.70;;;15.40;99.90;;;;;;5032744;28;20162;-71
2022/05/16 05:58:21;;;;;;;32.08;15.35;;;15.40;99.90;;;;;;5021122;28;20565;-73
2022/05/16 06:00:46;;;;;;;35.00;15.82;;;15.40;99.90;;;;;;5013562;28;20265;-73
2022/05/16 06:03:12;;;;;;;30.30;15.10;;;15.40;99.90;;;;;;5013834;28;20748;-72
2022/05/16 06:05:38;;;;;;;32.50;15.32;;;15.40;99.90;;;;;;5013050;28;20719;-71
2022/05/16 06:08:04;;;;;;;34.20;15.30;;;15.40;99.90;;;;;;5013337;28;20656;-72
2022/05/16 06:10:30;;;;;;;38.75;16.85;;;15.40;99.90;;;;;;5033009;28;20264;-72
2022/05/16 06:12:56;;;;;;;37.13;14.98;;;15.50;99.90;;;;;;5021538;28;20170;-73
2022/05/16 06:15:22;;;;;;;32.80;15.43;;;15.50;99.90;;;;;;5013094;28;20174;-75
2022/05/16 06:17:48;;;;;;;34.17;14.18;;;15.60;99.90;;;;;;5012839;28;20175;-72
2022/05/16 06:20:14;;;;;;;33.97;13.90;;;15.60;99.90;;;;;;5012899;28;20306;-70
2022/05/16 06:22:41;;;;;;;36.35;13.95;;;15.70;99.90;;;;;;5013328;28;20526;-73
2022/05/16 06:28:02;;;;;;;30.60;12.70;;;15.70;99.90;;;;;;5032520;28;20563;-73
2022/05/16 06:30:29;;;;;;;28.25;12.18;;;15.60;99.90;;;;;;5032634;28;20481;-73
2022/05/16 06:32:55;;;;;;;31.10;14.13;;;15.50;99.90;;;;;;5032469;28;20212;-73
2022/05/16 06:35:20;;;;;;;29.27;12.13;;;15.50;99.90;;;;;;5032211;28;20174;-71
2022/05/16 06:37:46;;;;;;;23.60;11.68;;;15.50;99.90;;;;;;5032839;28;20578;-72
2022/05/16 06:40:14;;;;;;;27.73;12.27;;;15.50;99.90;;;;;;5032069;28;20170;-72
2022/05/16 06:42:40;;;;;;;23.35;10.23;;;15.60;99.90;;;;;;5032454;28;20182;-70
2022/05/16 06:45:07;;;;;;;23.77;10.95;;;15.70;99.90;;;;;;5032432;28;20236;-73
2022/05/16 06:47:33;;;;;;;18.98;8.93;;;15.70;99.90;;;;;;5032575;28;20592;-73
2022/05/16 06:49:59;;;;;;;22.38;9.85;;;15.80;99.90;;;;;;5032346;28;20174;-78
2022/05/16 06:52:24;;;;;;;24.63;10.43;;;15.90;99.90;;;;;;5031634;28;20194;-81
2022/05/16 06:54:51;;;;;;;27.58;8.13;;;15.90;99.90;;;;;;5020873;28;20261;-81
2022/05/16 06:57:17;;;;;;;21.75;9.77;;;15.90;99.90;;;;;;5012987;28;22074;-80
2022/05/16 06:59:43;;;;;;;20.70;8.52;;;16.00;99.90;;;;;;5018719;28;20217;-77
2022/05/16 07:02:12;;;;;;;26.88;9.02;;;16.10;99.90;;;;;;5017649;28;20187;-83
2022/05/16 07:04:39;;;;;;;17.90;8.93;;;16.20;99.90;;;;;;4996711;28;20216;-79
2022/05/16 07:07:08;;;;;;;21.05;8.57;;;16.30;99.90;;;;;;5028343;28;20540;-81
2022/05/16 07:09:36;;;;;;;27.85;9.10;;;16.20;99.90;;;;;;5033234;28;20190;-78
2022/05/16 07:12:01;;;;;;;25.63;9.05;;;16.30;99.90;;;;;;5023289;28;20170;-78
2022/05/16 07:14:27;;;;;;;21.48;8.80;;;16.30;99.90;;;;;;5012853;28;20653;-71
2022/05/16 07:16:53;;;;;;;14.95;7.28;;;16.30;99.90;;;;;;5011658;28;20179;-64
2022/05/16 07:19:18;;;;;;;20.33;8.63;;;16.30;99.90;;;;;;5022002;28;20233;-63
2022/05/16 07:21:44;;;;;;;20.67;8.23;;;16.20;99.90;;;;;;5012010;28;20174;-65
2022/05/16 07:24:10;;;;;;;26.15;7.10;;;16.20;99.90;;;;;;5011439;28;20301;-63
2022/05/16 07:29:20;;;;;;;23.45;7.75;;;16.30;99.90;;;;;;5011806;28;20329;-64
2022/05/16 07:31:46;;;;;;;16.92;7.30;;;16.20;99.90;;;;;;5011754;28;20198;-65
2022/05/16 07:34:12;;;;;;;15.18;7.10;;;16.20;99.90;;;;;;5011696;28;20170;-67
2022/05/16 07:36:38;;;;;;;13.48;6.13;;;16.30;99.90;;;;;;5011393;28;20169;-68
2022/05/16 07:39:04;;;;;;;12.45;5.70;;;16.30;99.90;;;;;;5011428;28;20253;-67
2022/05/16 07:41:31;;;;;;;12.10;6.05;;;16.40;99.90;;;;;;5013585;28;20646;-71
2022/05/16 07:43:57;;;;;;;15.07;6.72;;;16.40;99.90;;;;;;5023211;28;20271;-65
2022/05/16 07:46:23;;;;;;;21.60;6.07;;;16.60;99.90;;;;;;5030960;28;20229;-63
2022/05/16 07:48:49;;;;;;;18.92;5.63;;;16.70;99.90;;;;;;5030727;28;20184;-64
2022/05/16 07:51:15;;;;;;;13.50;5.90;;;16.70;99.90;;;;;;5030313;28;20654;-64
2022/05/16 07:53:41;;;;;;;15.02;5.32;;;16.90;99.90;;;;;;5030627;28;20667;-59
2022/05/16 07:56:09;;;;;;;15.25;4.88;;;16.90;99.90;;;;;;5011725;28;20178;-61
2022/05/16 07:58:35;;;;;;;13.43;5.30;;;16.90;99.90;;;;;;5011369;28;20574;-61
2022/05/16 08:01:01;;;;;;;13.32;4.28;;;17.00;99.90;;;;;;5011434;28;20657;-60
2022/05/16 08:03:29;;;;;;;13.40;4.88;;;16.80;99.90;;;;;;5011262;28;20174;-60
2022/05/16 08:05:55;;;;;;;12.68;4.22;;;16.80;99.90;;;;;;5010972;28;20174;-62
2022/05/16 08:11:06;;;;;;;12.48;4.32;;;17.10;99.90;;;;;;5027337;28;20280;-61
2022/05/16 08:13:32;;;;;;;13.75;3.90;;;17.20;99.90;;;;;;5029195;28;20186;-62
2022/05/16 08:15:58;;;;;;;10.60;3.70;;;17.60;99.90;;;;;;5030992;28;20181;-62
2022/05/16 08:18:25;;;;;;;9.20;3.70;;;17.70;99.90;;;;;;5021408;28;20196;-62
2022/05/16 08:20:51;;;;;;;16.77;3.83;;;17.90;99.90;;;;;;5013062;28;20177;-63
2022/05/16 08:23:25;;;;;;;20.10;4.00;;;17.90;99.90;;;;;;5009994;28;20185;-63
2022/05/16 08:25:53;;;;;;;12.27;4.03;;;17.90;99.90;;;;;;5017846;28;20178;-63
2022/05/16 08:28:19;;;;;;;12.68;3.60;;;18.30;99.90;;;;;;5010790;28;20171;-64
2022/05/16 08:30:45;;;;;;;15.75;4.30;;;18.30;99.90;;;;;;5010898;28;20733;-61
2022/05/16 08:33:12;;;;;;;10.15;3.55;;;18.80;99.90;;;;;;5011039;28;20167;-61
2022/05/16 08:35:38;;;;;;;10.23;3.25;;;18.60;99.90;;;;;;4993467;28;20166;-62
2022/05/16 08:41:09;;;;;;;10.20;3.10;;;19.00;99.90;;;;;;5030498;28;20176;-64
2022/05/16 08:43:56;;;;;;;15.52;3.20;;;19.30;99.90;;;;;;5022210;28;20194;-62
2022/05/16 08:46:39;;;;;;;9.85;2.58;;;19.70;99.90;;;;;;5027912;28;20730;-61
2022/05/16 08:49:16;;;;;;;12.27;3.00;;;19.60;99.90;;;;;;5039930;28;20287;-62
2022/05/16 08:51:45;;;;;;;14.13;3.00;;;19.80;99.90;;;;;;5040994;28;20220;-62
2022/05/16 08:54:26;;;;;;;7.65;2.35;;;19.40;99.90;;;;;;5040234;28;20166;-61
2022/05/16 08:56:53;;;;;;;16.05;3.50;;;18.80;99.90;;;;;;5041140;28;20166;-60
2022/05/16 08:59:23;;;;;;;10.05;2.75;;;18.80;99.90;;;;;;5042955;28;20173;-61
2022/05/16 09:01:53;;;;;;;13.57;2.90;;;19.00;99.90;;;;;;5034650;28;20614;-61
2022/05/16 09:04:23;;;;;;;12.18;3.05;;;18.40;99.90;;;;;;5035825;28;20688;-61
2022/05/16 09:07:10;;;;;;;13.63;2.95;;;18.30;99.90;;;;;;5037175;28;20185;-61
2022/05/16 09:10:04;;;;;;;14.85;3.30;;;18.40;99.90;;;;;;5036531;28;20561;-61
2022/05/16 09:12:43;;;;;;;17.00;3.15;;;18.50;99.90;;;;;;5040959;28;20249;-61
2022/05/16 09:15:46;;;;;;;13.55;2.92;;;18.70;99.90;;;;;;5033794;28;20585;-62
2022/05/16 09:19:01;;;;;;;11.43;2.78;;;18.70;99.90;;;;;;5033982;28;20169;-62
2022/05/16 09:22:00;;;;;;;13.68;3.03;;;18.40;99.90;;;;;;4989087;28;20178;-62
2022/05/16 09:24:35;;;;;;;7.63;2.40;;;18.60;99.90;;;;;;5033574;28;20218;-62
2022/05/16 09:30:06;;;;;;;13.18;2.92;;;20.00;99.90;;;;;;5034018;28;20176;-62
2022/05/16 09:32:37;;;;;;;12.05;2.75;;;20.50;99.90;;;;;;5033081;28;20253;-62
2022/05/16 09:35:04;;;;;;;14.10;3.00;;;20.60;99.90;;;;;;5032957;28;20220;-62
2022/05/16 09:37:30;;;;;;;11.82;2.22;;;20.20;99.90;;;;;;5032258;28;20177;-62
2022/05/16 09:39:57;;;;;;;15.60;2.92;;;19.90;99.90;;;;;;5033427;28;20192;-61
2022/05/16 09:42:34;;;;;;;9.55;3.05;;;19.90;99.90;;;;;;5037418;28;20169;-62
2022/05/16 09:45:09;;;;;;;10.88;2.30;;;19.80;99.90;;;;;;5039134;28;20692;-62
2022/05/16 09:47:40;;;;;;;12.10;2.00;;;20.00;99.90;;;;;;5031356;28;20189;-62
2022/05/16 09:50:16;;;;;;;8.80;1.98;;;20.40;99.90;;;;;;5019414;28;20664;-62
2022/05/16 09:52:46;;;;;;;10.32;2.60;;;20.50;99.90;;;;;;5026397;28;20206;-62
2022/05/16 09:55:34;;;;;;;12.48;2.35;;;20.90;99.90;;;;;;5040681;28;20181;-63
2022/05/16 09:58:03;;;;;;;13.45;2.28;;;20.70;99.90;;;;;;5034083;28;20640;-61
2022/05/16 10:00:38;;;;;;;15.48;2.80;;;20.10;99.90;;;;;;5021284;28;20216;-62
2022/05/16 10:03:44;;;;;;;9.13;2.28;;;19.90;99.90;;;;;;5040448;28;20174;-61
2022/05/16 10:06:35;;;;;;;15.75;2.28;;;19.70;99.90;;;;;;5032253;28;20239;-61
2022/05/16 10:09:06;;;;;;;14.43;2.38;;;19.70;99.90;;;;;;5030996;28;20554;-61
2022/05/16 10:11:33;;;;;;;10.40;2.35;;;19.70;99.90;;;;;;5030824;28;20602;-62
2022/05/16 10:13:59;;;;;;;11.77;2.75;;;19.70;99.90;;;;;;5030670;28;20708;-62
2022/05/16 10:16:29;;;;;;;12.38;2.38;;;20.10;99.90;;;;;;5030797;28;20254;-61
2022/05/16 10:19:16;;;;;;;12.35;2.70;;;20.30;99.90;;;;;;5030138;28;20648;-62
2022/05/16 10:21:53;;;;;;;16.00;3.00;;;20.70;99.90;;;;;;5030494;28;20232;-62
2022/05/16 10:24:21;;;;;;;14.75;2.67;;;20.80;99.90;;;;;;5032173;28;20211;-62
2022/05/16 10:26:51;;;;;;;10.02;2.15;;;20.60;99.90;;;;;;5027251;28;20256;-62
2022/05/16 10:29:23;;;;;;;11.10;2.63;;;20.70;99.90;;;;;;5030702;28;20178;-62
2022/05/16 10:35:10;;;;;;;12.93;2.78;;;21.20;99.90;;;;;;5031707;28;20176;-62
2022/05/16 10:37:41;;;;;;;12.95;2.70;;;20.70;99.90;;;;;;5024060;28;20173;-62
2022/05/16 10:40:29;;;;;;;9.93;2.50;;;20.00;99.90;;;;;;5032300;28;20174;-62
2022/05/16 10:43:12;;;;;;;10.00;2.15;;;19.60;99.90;;;;;;5031401;28;20657;-62
2022/05/16 10:45:43;;;;;;;13.68;2.72;;;19.50;99.90;;;;;;5031621;28;20228;-63
2022/05/16 10:48:32;;;;;;;10.95;2.00;;;19.30;99.90;;;;;;5017843;28;20595;-62
2022/05/16 10:51:08;;;;;;;19.40;3.22;;;19.00;99.90;;;;;;5011803;28;20274;-59
2022/05/16 10:53:49;;;;;;;17.77;3.78;;;18.70;99.90;;;;;;5016505;28;20281;-60
2022/05/16 10:56:47;;;;;;;12.90;2.97;;;18.30;99.90;;;;;;5015927;28;20184;-59
2022/05/16 10:59:31;;;;;;;19.75;3.65;;;17.90;99.90;;;;;;5010252;28;20170;-61
2022/05/16 11:02:12;;;;;;;13.75;3.20;;;17.70;99.90;;;;;;5012175;28;20170;-60
2022/05/16 11:04:59;;;;;;;25.35;4.05;;;17.60;99.90;;;;;;5020876;28;20214;-60
2022/05/16 11:07:43;;;;;;;22.17;4.50;;;17.50;99.90;;;;;;5022108;28;20648;-59
2022/05/16 11:10:34;;;;;;;23.38;4.55;;;17.60;99.90;;;;;;5015360;28;20209;-59
2022/05/16 11:13:25;;;;;;;23.73;5.53;;;17.80;99.90;;;;;;5012244;28;20179;-59
2022/05/16 11:16:03;;;;;;;27.08;5.10;;;18.00;99.90;;;;;;4991754;28;20273;-60
2022/05/16 11:18:48;;;;;;;15.00;3.45;;;18.50;99.90;;;;;;5012167;28;20640;-60
2022/05/16 11:21:40;;;;;;;18.77;4.10;;;18.40;99.90;;;;;;4992438;28;20765;-59
2022/05/16 11:24:15;;;;;;;23.15;4.55;;;18.50;99.90;;;;;;5002444;28;20253;-59
2022/05/16 11:26:41;;;;;;;20.05;3.22;;;18.40;99.90;;;;;;5011927;28;20169;-59
2022/05/16 11:29:25;;;;;;;11.63;3.42;;;18.40;99.90;;;;;;5014900;28;20174;-59
2022/05/16 11:32:03;;;;;;;19.33;3.13;;;18.60;99.90;;;;;;5030929;28;20208;-59
2022/05/16 11:34:49;;;;;;;16.45;3.28;;;18.70;99.90;;;;;;5021247;28;20178;-59
2022/05/16 11:37:53;;;;;;;19.67;3.63;;;19.00;99.90;;;;;;5009765;28;20544;-59
2022/05/16 11:40:44;;;;;;;9.50;2.75;;;19.00;99.90;;;;;;5011328;28;20258;-60
2022/05/16 11:43:29;;;;;;;11.27;3.00;;;18.80;99.90;;;;;;5030737;28;20197;-59
2022/05/16 11:46:14;;;;;;;15.80;2.88;;;18.80;99.90;;;;;;5031240;28;20229;-59
2022/05/16 11:48:51;;;;;;;10.88;1.85;;;18.70;99.90;;;;;;5030926;28;20235;-59
2022/05/16 11:51:26;;;;;;;16.08;3.10;;;18.70;99.90;;;;;;5020530;28;20174;-58
2022/05/16 11:53:58;;;;;;;10.85;2.60;;;18.50;99.90;;;;;;5011275;28;20177;-58
2022/05/16 12:02:20;;;;;;;11.52;2.65;;;19.60;99.90;;;;;;5027154;28;20726;-59
2022/05/16 12:04:53;;;;;;;13.32;2.80;;;19.60;99.90;;;;;;5030658;28;20675;-58
2022/05/16 12:07:44;;;;;;;12.73;2.20;;;19.50;99.90;;;;;;5030723;28;20169;-59
2022/05/16 12:10:10;;;;;;;13.68;1.88;;;19.50;99.90;;;;;;5030008;28;20236;-60
2022/05/16 12:12:40;;;;;;;10.00;2.40;;;19.80;99.90;;;;;;5011067;28;20182;-59
2022/05/16 12:15:24;;;;;;;15.70;2.33;;;19.30;99.90;;;;;;5011032;28;20284;-59
2022/05/16 12:17:50;;;;;;;11.80;2.60;;;19.30;99.90;;;;;;5011208;28;20175;-59
2022/05/16 12:20:16;;;;;;;16.08;2.92;;;19.00;99.90;;;;;;5017894;28;20180;-59
2022/05/16 12:22:47;;;;;;;9.95;1.95;;;18.50;99.90;;;;;;5011171;28;20178;-59
2022/05/16 12:25:26;;;;;;;12.52;2.45;;;18.30;99.90;;;;;;5011027;28;20205;-59
2022/05/16 12:28:13;;;;;;;15.20;2.95;;;18.30;99.90;;;;;;5014246;28;20257;-59
2022/05/16 12:30:51;;;;;;;12.88;2.17;;;18.80;99.90;;;;;;5018124;28;20214;-59
2022/05/16 12:33:32;;;;;;;8.52;2.17;;;19.30;99.90;;;;;;5034198;28;20220;-59
2022/05/16 12:35:58;;;;;;;11.20;2.40;;;19.80;99.90;;;;;;4994785;28;20183;-61
2022/05/16 12:38:27;;;;;;;12.18;2.70;;;20.30;99.90;;;;;;4995598;28;20563;-59
2022/05/16 12:41:05;;;;;;;14.38;2.92;;;19.90;99.90;;;;;;4995192;28;20221;-59
2022/05/16 12:43:52;;;;;;;17.60;2.72;;;20.40;99.90;;;;;;4995049;28;20639;-59
2022/05/16 12:46:35;;;;;;;14.38;2.17;;;21.20;99.90;;;;;;5004263;28;20225;-59
2022/05/16 12:49:25;;;;;;;13.68;2.88;;;21.60;99.90;;;;;;5014932;28;20182;-58
2022/05/16 12:52:01;;;;;;;9.23;2.33;;;21.50;99.90;;;;;;5013962;28;20171;-59
2022/05/16 12:54:46;;;;;;;13.65;2.25;;;20.50;99.90;;;;;;5018890;28;20182;-59
2022/05/16 12:57:41;;;;;;;11.77;2.30;;;19.80;99.90;;;;;;5014493;28;20210;-59
2022/05/16 13:00:13;;;;;;;14.35;2.15;;;19.00;99.90;;;;;;5014585;28;20582;-59
2022/05/16 13:02:45;;;;;;;10.30;2.03;;;19.10;99.90;;;;;;5013804;28;20186;-59
2022/05/16 13:05:33;;;;;;;15.13;2.55;;;19.10;99.90;;;;;;5025924;28;20214;-60
2022/05/16 13:08:29;;;;;;;13.32;2.45;;;20.20;99.90;;;;;;5034328;28;20174;-59
2022/05/16 13:11:46;;;;;;;10.88;2.53;;;21.10;99.90;;;;;;5034005;28;20170;-60
2022/05/16 13:14:30;;;;;;;7.88;1.90;;;20.90;99.90;;;;;;5021189;28;20249;-60
2022/05/16 13:17:16;;;;;;;9.23;1.83;;;20.30;99.90;;;;;;5014603;28;20170;-59
2022/05/16 13:19:45;;;;;;;8.88;1.75;;;19.60;99.90;;;;;;5014369;28;20201;-60
2022/05/16 13:22:22;;;;;;;10.70;1.70;;;19.20;99.90;;;;;;5020872;28;20175;-59
2022/05/16 13:24:56;;;;;;;5.68;1.27;;;18.80;99.90;;;;;;5039454;28;20303;-59
2022/05/16 13:30:13;;;;;;;4.97;1.08;;;18.40;99.90;;;;;;5021077;28;20224;-59
2022/05/16 13:32:39;;;;;;;8.20;1.75;;;18.10;99.90;;;;;;5018960;28;20600;-61
2022/05/16 13:35:07;;;;;;;7.82;1.65;;;18.30;99.90;;;;;;5033271;28;20170;-67